sensor_id;sensor_type;location;lat;lon;timestamp;P1;durP1;ratioP1;P2;durP2;ratioP2
69856;SDS011;57147;53.582;10.112;2022-10-31T00:03:00;34.15;;;21.20;;
69856;SDS011;57147;53.582;10.112;2022-10-31T00:08:04;35.25;;;21.13;;
69856;SDS011;57147;53.582;10.112;2022-10-31T00:13:04;35.13;;;23.17;;
69856;SDS011;57147;53.582;10.112;2022-10-31T00:18:05;35.13;;;22.02;;
69856;SDS011;57147;53.582;10.112;2022-10-31T00:23:10;31.30;;;21.38;;
69856;SDS011;57147;53.582;10.112;2022-10-31T00:28:11;27.83;;;19.70;;
69856;SDS011;57147;53.582;10.112;2022-10-31T00:33:11;30.52;;;18.77;;
69856;SDS011;57147;53.582;10.112;2022-10-31T00:38:15;29.48;;;19.75;;
69856;SDS011;57147;53.582;10.112;2022-10-31T00:43:15;28.90;;;19.95;;
69856;SDS011;57147;53.582;10.112;2022-10-31T00:48:16;27.42;;;19.60;;
69856;SDS011;57147;53.582;10.112;2022-10-31T00:53:19;31.30;;;21.58;;
69856;SDS011;57147;53.582;10.112;2022-10-31T00:58:19;28.80;;;18.35;;
69856;SDS011;57147;53.582;10.112;2022-10-31T01:03:20;29.83;;;19.17;;
69856;SDS011;57147;53.582;10.112;2022-10-31T01:08:24;31.80;;;20.88;;
69856;SDS011;57147;53.582;10.112;2022-10-31T01:13:24;29.27;;;18.52;;
69856;SDS011;57147;53.582;10.112;2022-10-31T01:18:25;26.83;;;20.33;;
69856;SDS011;57147;53.582;10.112;2022-10-31T01:23:29;27.88;;;20.75;;
69856;SDS011;57147;53.582;10.112;2022-10-31T01:28:29;28.05;;;17.15;;
69856;SDS011;57147;53.582;10.112;2022-10-31T01:33:30;26.60;;;18.60;;
69856;SDS011;57147;53.582;10.112;2022-10-31T01:38:33;26.15;;;18.35;;
69856;SDS011;57147;53.582;10.112;2022-10-31T01:43:44;25.65;;;16.75;;
69856;SDS011;57147;53.582;10.112;2022-10-31T01:48:46;26.15;;;16.52;;
69856;SDS011;57147;53.582;10.112;2022-10-31T01:53:50;28.00;;;18.23;;
69856;SDS011;57147;53.582;10.112;2022-10-31T01:58:54;29.92;;;18.83;;
69856;SDS011;57147;53.582;10.112;2022-10-31T02:03:57;29.40;;;19.17;;
69856;SDS011;57147;53.582;10.112;2022-10-31T02:09:01;28.60;;;19.77;;
69856;SDS011;57147;53.582;10.112;2022-10-31T02:14:04;32.38;;;17.83;;
69856;SDS011;57147;53.582;10.112;2022-10-31T02:19:04;29.35;;;18.02;;
69856;SDS011;57147;53.582;10.112;2022-10-31T02:35:11;31.75;;;18.73;;
69856;SDS011;57147;53.582;10.112;2022-10-31T02:40:17;26.80;;;16.08;;
69856;SDS011;57147;53.582;10.112;2022-10-31T02:45:25;31.17;;;16.88;;
69856;SDS011;57147;53.582;10.112;2022-10-31T02:50:32;33.13;;;18.42;;
69856;SDS011;57147;53.582;10.112;2022-10-31T02:55:51;35.20;;;18.25;;
69856;SDS011;57147;53.582;10.112;2022-10-31T03:06:35;29.98;;;18.85;;
69856;SDS011;57147;53.582;10.112;2022-10-31T03:11:42;31.50;;;17.13;;
69856;SDS011;57147;53.582;10.112;2022-10-31T03:16:46;39.67;;;20.17;;
69856;SDS011;57147;53.582;10.112;2022-10-31T03:21:52;31.80;;;17.17;;
69856;SDS011;57147;53.582;10.112;2022-10-31T03:26:56;32.72;;;18.52;;
69856;SDS011;57147;53.582;10.112;2022-10-31T03:32:00;35.63;;;16.88;;
69856;SDS011;57147;53.582;10.112;2022-10-31T03:37:07;27.23;;;16.10;;
69856;SDS011;57147;53.582;10.112;2022-10-31T03:42:12;31.17;;;17.13;;
69856;SDS011;57147;53.582;10.112;2022-10-31T03:47:15;26.67;;;16.38;;
69856;SDS011;57147;53.582;10.112;2022-10-31T03:52:21;27.65;;;15.13;;
69856;SDS011;57147;53.582;10.112;2022-10-31T03:57:27;36.15;;;18.70;;
69856;SDS011;57147;53.582;10.112;2022-10-31T04:02:32;30.75;;;16.92;;
69856;SDS011;57147;53.582;10.112;2022-10-31T04:07:37;29.10;;;15.48;;
69856;SDS011;57147;53.582;10.112;2022-10-31T04:12:41;29.00;;;15.52;;
69856;SDS011;57147;53.582;10.112;2022-10-31T04:17:46;55.53;;;25.38;;
69856;SDS011;57147;53.582;10.112;2022-10-31T04:22:52;37.63;;;17.52;;
69856;SDS011;57147;53.582;10.112;2022-10-31T04:27:53;34.63;;;17.38;;
69856;SDS011;57147;53.582;10.112;2022-10-31T04:32:54;40.58;;;17.80;;
69856;SDS011;57147;53.582;10.112;2022-10-31T04:37:57;27.50;;;17.10;;
69856;SDS011;57147;53.582;10.112;2022-10-31T04:42:57;27.90;;;14.48;;
69856;SDS011;57147;53.582;10.112;2022-10-31T04:47:58;27.75;;;15.20;;
69856;SDS011;57147;53.582;10.112;2022-10-31T04:53:01;29.23;;;14.93;;
69856;SDS011;57147;53.582;10.112;2022-10-31T04:58:02;22.00;;;13.32;;
69856;SDS011;57147;53.582;10.112;2022-10-31T05:03:03;23.10;;;13.75;;
69856;SDS011;57147;53.582;10.112;2022-10-31T05:08:06;27.13;;;15.07;;
69856;SDS011;57147;53.582;10.112;2022-10-31T05:13:06;26.45;;;15.48;;
69856;SDS011;57147;53.582;10.112;2022-10-31T05:18:07;31.52;;;17.20;;
69856;SDS011;57147;53.582;10.112;2022-10-31T05:23:10;34.85;;;18.60;;
69856;SDS011;57147;53.582;10.112;2022-10-31T05:28:14;37.50;;;17.77;;
69856;SDS011;57147;53.582;10.112;2022-10-31T05:33:15;46.78;;;21.67;;
69856;SDS011;57147;53.582;10.112;2022-10-31T05:38:18;51.80;;;22.90;;
69856;SDS011;57147;53.582;10.112;2022-10-31T05:43:18;52.50;;;22.13;;
69856;SDS011;57147;53.582;10.112;2022-10-31T05:48:19;52.50;;;22.38;;
69856;SDS011;57147;53.582;10.112;2022-10-31T05:53:22;47.92;;;22.65;;
69856;SDS011;57147;53.582;10.112;2022-10-31T05:58:23;46.50;;;19.90;;
69856;SDS011;57147;53.582;10.112;2022-10-31T06:03:23;41.92;;;18.98;;
69856;SDS011;57147;53.582;10.112;2022-10-31T06:08:26;61.20;;;23.05;;
69856;SDS011;57147;53.582;10.112;2022-10-31T06:13:27;40.28;;;18.23;;
69856;SDS011;57147;53.582;10.112;2022-10-31T06:18:28;48.17;;;20.52;;
69856;SDS011;57147;53.582;10.112;2022-10-31T06:23:31;61.13;;;20.55;;
69856;SDS011;57147;53.582;10.112;2022-10-31T06:28:31;57.85;;;21.17;;
69856;SDS011;57147;53.582;10.112;2022-10-31T06:33:32;56.92;;;20.15;;
69856;SDS011;57147;53.582;10.112;2022-10-31T06:38:35;71.38;;;23.13;;
69856;SDS011;57147;53.582;10.112;2022-10-31T06:43:36;47.88;;;19.33;;
69856;SDS011;57147;53.582;10.112;2022-10-31T06:48:36;45.45;;;20.38;;
69856;SDS011;57147;53.582;10.112;2022-10-31T06:53:40;58.55;;;18.88;;
69856;SDS011;57147;53.582;10.112;2022-10-31T06:58:40;50.85;;;19.73;;
69856;SDS011;57147;53.582;10.112;2022-10-31T07:03:41;52.10;;;19.05;;
69856;SDS011;57147;53.582;10.112;2022-10-31T07:08:44;50.85;;;19.67;;
69856;SDS011;57147;53.582;10.112;2022-10-31T07:13:44;39.58;;;18.20;;
69856;SDS011;57147;53.582;10.112;2022-10-31T07:18:45;41.63;;;18.00;;
69856;SDS011;57147;53.582;10.112;2022-10-31T07:23:49;44.80;;;17.40;;
69856;SDS011;57147;53.582;10.112;2022-10-31T07:28:50;54.28;;;19.95;;
69856;SDS011;57147;53.582;10.112;2022-10-31T07:33:50;50.00;;;19.15;;
69856;SDS011;57147;53.582;10.112;2022-10-31T07:38:53;50.58;;;18.70;;
69856;SDS011;57147;53.582;10.112;2022-10-31T07:43:54;65.10;;;22.88;;
69856;SDS011;57147;53.582;10.112;2022-10-31T07:48:55;37.88;;;16.10;;
69856;SDS011;57147;53.582;10.112;2022-10-31T07:53:58;46.78;;;18.52;;
69856;SDS011;57147;53.582;10.112;2022-10-31T07:58:58;37.90;;;18.13;;
69856;SDS011;57147;53.582;10.112;2022-10-31T08:03:59;48.70;;;17.83;;
69856;SDS011;57147;53.582;10.112;2022-10-31T08:09:02;47.95;;;17.52;;
69856;SDS011;57147;53.582;10.112;2022-10-31T08:14:03;39.33;;;16.58;;
69856;SDS011;57147;53.582;10.112;2022-10-31T08:19:03;31.83;;;14.10;;
69856;SDS011;57147;53.582;10.112;2022-10-31T08:24:07;38.25;;;15.88;;
69856;SDS011;57147;53.582;10.112;2022-10-31T08:29:08;34.38;;;15.48;;
69856;SDS011;57147;53.582;10.112;2022-10-31T08:34:08;35.33;;;15.82;;
69856;SDS011;57147;53.582;10.112;2022-10-31T08:39:11;34.22;;;15.32;;
69856;SDS011;57147;53.582;10.112;2022-10-31T08:44:12;28.83;;;13.80;;
69856;SDS011;57147;53.582;10.112;2022-10-31T08:49:12;35.53;;;14.10;;
69856;SDS011;57147;53.582;10.112;2022-10-31T08:54:15;35.15;;;16.58;;
69856;SDS011;57147;53.582;10.112;2022-10-31T08:59:16;32.50;;;14.15;;
69856;SDS011;57147;53.582;10.112;2022-10-31T09:04:17;29.77;;;13.73;;
69856;SDS011;57147;53.582;10.112;2022-10-31T09:09:20;31.08;;;13.63;;
69856;SDS011;57147;53.582;10.112;2022-10-31T09:14:20;25.70;;;11.85;;
69856;SDS011;57147;53.582;10.112;2022-10-31T09:19:21;29.95;;;13.43;;
69856;SDS011;57147;53.582;10.112;2022-10-31T09:24:24;30.02;;;14.65;;
69856;SDS011;57147;53.582;10.112;2022-10-31T09:29:24;25.77;;;12.57;;
69856;SDS011;57147;53.582;10.112;2022-10-31T09:34:25;28.45;;;13.35;;
69856;SDS011;57147;53.582;10.112;2022-10-31T09:39:28;25.90;;;13.30;;
69856;SDS011;57147;53.582;10.112;2022-10-31T09:44:31;26.60;;;11.88;;
69856;SDS011;57147;53.582;10.112;2022-10-31T09:49:47;26.67;;;13.13;;
69856;SDS011;57147;53.582;10.112;2022-10-31T09:55:02;26.45;;;12.77;;
69856;SDS011;57147;53.582;10.112;2022-10-31T10:00:06;19.10;;;10.13;;
69856;SDS011;57147;53.582;10.112;2022-10-31T10:05:15;21.50;;;10.68;;
69856;SDS011;57147;53.582;10.112;2022-10-31T10:10:24;17.25;;;9.70;;
69856;SDS011;57147;53.582;10.112;2022-10-31T10:15:50;18.90;;;9.85;;
69856;SDS011;57147;53.582;10.112;2022-10-31T10:21:03;20.00;;;10.02;;
69856;SDS011;57147;53.582;10.112;2022-10-31T10:26:16;19.92;;;11.02;;
69856;SDS011;57147;53.582;10.112;2022-10-31T10:31:19;20.20;;;10.20;;
69856;SDS011;57147;53.582;10.112;2022-10-31T10:36:26;17.80;;;8.77;;
69856;SDS011;57147;53.582;10.112;2022-10-31T10:41:34;17.45;;;8.70;;
69856;SDS011;57147;53.582;10.112;2022-10-31T10:46:44;19.88;;;11.60;;
69856;SDS011;57147;53.582;10.112;2022-10-31T10:51:52;17.30;;;9.10;;
69856;SDS011;57147;53.582;10.112;2022-10-31T10:57:03;15.63;;;7.55;;
69856;SDS011;57147;53.582;10.112;2022-10-31T11:02:16;13.70;;;7.57;;
69856;SDS011;57147;53.582;10.112;2022-10-31T11:07:18;13.20;;;6.93;;
69856;SDS011;57147;53.582;10.112;2022-10-31T11:12:30;19.80;;;9.77;;
69856;SDS011;57147;53.582;10.112;2022-10-31T11:17:32;20.85;;;12.27;;
69856;SDS011;57147;53.582;10.112;2022-10-31T11:22:35;149.38;;;19.10;;
69856;SDS011;57147;53.582;10.112;2022-10-31T11:27:39;16.90;;;8.82;;
69856;SDS011;57147;53.582;10.112;2022-10-31T11:32:40;18.83;;;9.95;;
69856;SDS011;57147;53.582;10.112;2022-10-31T11:37:45;21.05;;;11.10;;
69856;SDS011;57147;53.582;10.112;2022-10-31T11:42:50;20.45;;;10.15;;
69856;SDS011;57147;53.582;10.112;2022-10-31T11:47:54;19.52;;;10.35;;
69856;SDS011;57147;53.582;10.112;2022-10-31T11:52:56;19.38;;;10.73;;
69856;SDS011;57147;53.582;10.112;2022-10-31T11:57:59;17.42;;;9.55;;
69856;SDS011;57147;53.582;10.112;2022-10-31T12:03:13;20.52;;;11.13;;
69856;SDS011;57147;53.582;10.112;2022-10-31T12:08:23;20.15;;;11.73;;
69856;SDS011;57147;53.582;10.112;2022-10-31T12:13:37;26.27;;;14.38;;
69856;SDS011;57147;53.582;10.112;2022-10-31T12:18:59;25.98;;;13.93;;
69856;SDS011;57147;53.582;10.112;2022-10-31T12:24:07;25.13;;;13.52;;
69856;SDS011;57147;53.582;10.112;2022-10-31T12:29:26;25.70;;;14.82;;
69856;SDS011;57147;53.582;10.112;2022-10-31T12:34:43;29.27;;;15.30;;
69856;SDS011;57147;53.582;10.112;2022-10-31T12:39:55;27.52;;;14.90;;
69856;SDS011;57147;53.582;10.112;2022-10-31T12:45:12;24.20;;;13.32;;
69856;SDS011;57147;53.582;10.112;2022-10-31T12:50:27;23.40;;;13.30;;
69856;SDS011;57147;53.582;10.112;2022-10-31T12:55:46;25.58;;;14.07;;
69856;SDS011;57147;53.582;10.112;2022-10-31T13:01:02;24.38;;;14.25;;
69856;SDS011;57147;53.582;10.112;2022-10-31T13:06:09;25.25;;;13.77;;
69856;SDS011;57147;53.582;10.112;2022-10-31T13:11:15;21.88;;;12.75;;
69856;SDS011;57147;53.582;10.112;2022-10-31T13:16:22;24.38;;;13.90;;
69856;SDS011;57147;53.582;10.112;2022-10-31T13:21:29;23.77;;;12.98;;
69856;SDS011;57147;53.582;10.112;2022-10-31T13:26:35;26.30;;;14.80;;
69856;SDS011;57147;53.582;10.112;2022-10-31T13:31:42;26.23;;;14.80;;
69856;SDS011;57147;53.582;10.112;2022-10-31T13:36:43;28.10;;;16.58;;
69856;SDS011;57147;53.582;10.112;2022-10-31T13:41:49;25.90;;;14.82;;
69856;SDS011;57147;53.582;10.112;2022-10-31T13:46:56;23.02;;;12.43;;
69856;SDS011;57147;53.582;10.112;2022-10-31T13:57:06;21.45;;;12.57;;
69856;SDS011;57147;53.582;10.112;2022-10-31T14:02:15;25.98;;;12.43;;
69856;SDS011;57147;53.582;10.112;2022-10-31T14:07:18;20.10;;;10.80;;
69856;SDS011;57147;53.582;10.112;2022-10-31T14:12:23;20.98;;;11.65;;
69856;SDS011;57147;53.582;10.112;2022-10-31T14:17:30;19.90;;;10.68;;
69856;SDS011;57147;53.582;10.112;2022-10-31T14:22:39;19.33;;;11.02;;
69856;SDS011;57147;53.582;10.112;2022-10-31T14:27:45;19.52;;;10.77;;
69856;SDS011;57147;53.582;10.112;2022-10-31T14:32:51;19.45;;;11.75;;
69856;SDS011;57147;53.582;10.112;2022-10-31T14:38:07;16.40;;;9.70;;
69856;SDS011;57147;53.582;10.112;2022-10-31T14:43:24;19.92;;;11.05;;
69856;SDS011;57147;53.582;10.112;2022-10-31T14:48:51;18.55;;;9.95;;
69856;SDS011;57147;53.582;10.112;2022-10-31T14:54:02;18.77;;;9.80;;
69856;SDS011;57147;53.582;10.112;2022-10-31T14:59:06;19.90;;;10.65;;
69856;SDS011;57147;53.582;10.112;2022-10-31T15:04:15;19.08;;;11.35;;
69856;SDS011;57147;53.582;10.112;2022-10-31T15:09:22;20.92;;;11.93;;
69856;SDS011;57147;53.582;10.112;2022-10-31T15:14:25;20.52;;;11.00;;
69856;SDS011;57147;53.582;10.112;2022-10-31T15:19:30;19.45;;;11.65;;
69856;SDS011;57147;53.582;10.112;2022-10-31T15:24:34;19.88;;;10.80;;
69856;SDS011;57147;53.582;10.112;2022-10-31T15:29:36;24.38;;;12.00;;
69856;SDS011;57147;53.582;10.112;2022-10-31T15:34:50;21.85;;;11.85;;
69856;SDS011;57147;53.582;10.112;2022-10-31T15:39:52;24.45;;;13.32;;
69856;SDS011;57147;53.582;10.112;2022-10-31T15:44:55;21.33;;;11.45;;
69856;SDS011;57147;53.582;10.112;2022-10-31T15:50:03;23.92;;;11.70;;
69856;SDS011;57147;53.582;10.112;2022-10-31T15:55:18;21.13;;;11.85;;
69856;SDS011;57147;53.582;10.112;2022-10-31T16:00:21;21.70;;;12.18;;
69856;SDS011;57147;53.582;10.112;2022-10-31T16:05:32;21.48;;;10.95;;
69856;SDS011;57147;53.582;10.112;2022-10-31T16:10:35;22.88;;;11.98;;
69856;SDS011;57147;53.582;10.112;2022-10-31T16:15:36;22.55;;;12.18;;
69856;SDS011;57147;53.582;10.112;2022-10-31T16:20:39;21.73;;;11.65;;
69856;SDS011;57147;53.582;10.112;2022-10-31T16:25:40;21.25;;;11.18;;
69856;SDS011;57147;53.582;10.112;2022-10-31T16:30:41;23.98;;;12.15;;
69856;SDS011;57147;53.582;10.112;2022-10-31T16:35:45;21.67;;;10.32;;
69856;SDS011;57147;53.582;10.112;2022-10-31T16:40:47;22.30;;;10.85;;
69856;SDS011;57147;53.582;10.112;2022-10-31T16:45:48;28.52;;;12.32;;
69856;SDS011;57147;53.582;10.112;2022-10-31T16:50:53;25.17;;;11.05;;
69856;SDS011;57147;53.582;10.112;2022-10-31T16:55:54;25.42;;;11.18;;
69856;SDS011;57147;53.582;10.112;2022-10-31T17:00:56;29.25;;;13.40;;
69856;SDS011;57147;53.582;10.112;2022-10-31T17:06:00;27.63;;;12.38;;
69856;SDS011;57147;53.582;10.112;2022-10-31T17:11:01;29.38;;;12.45;;
69856;SDS011;57147;53.582;10.112;2022-10-31T17:16:02;31.95;;;13.23;;
69856;SDS011;57147;53.582;10.112;2022-10-31T17:21:09;30.02;;;13.68;;
69856;SDS011;57147;53.582;10.112;2022-10-31T17:31:19;28.40;;;12.57;;
69856;SDS011;57147;53.582;10.112;2022-10-31T17:36:23;30.13;;;13.85;;
69856;SDS011;57147;53.582;10.112;2022-10-31T17:41:24;29.15;;;12.75;;
69856;SDS011;57147;53.582;10.112;2022-10-31T17:46:25;25.95;;;13.90;;
69856;SDS011;57147;53.582;10.112;2022-10-31T17:51:31;25.42;;;12.73;;
69856;SDS011;57147;53.582;10.112;2022-10-31T17:56:32;26.85;;;12.35;;
69856;SDS011;57147;53.582;10.112;2022-10-31T18:01:32;25.92;;;11.82;;
69856;SDS011;57147;53.582;10.112;2022-10-31T18:06:36;24.45;;;11.30;;
69856;SDS011;57147;53.582;10.112;2022-10-31T18:11:36;28.92;;;12.38;;
69856;SDS011;57147;53.582;10.112;2022-10-31T18:16:37;25.63;;;12.10;;
69856;SDS011;57147;53.582;10.112;2022-10-31T18:21:40;24.58;;;11.70;;
69856;SDS011;57147;53.582;10.112;2022-10-31T18:26:41;23.52;;;11.20;;
69856;SDS011;57147;53.582;10.112;2022-10-31T18:31:42;24.75;;;12.57;;
69856;SDS011;57147;53.582;10.112;2022-10-31T18:36:45;22.30;;;10.93;;
69856;SDS011;57147;53.582;10.112;2022-10-31T18:41:46;25.23;;;12.52;;
69856;SDS011;57147;53.582;10.112;2022-10-31T18:46:46;25.45;;;12.43;;
69856;SDS011;57147;53.582;10.112;2022-10-31T18:51:50;22.25;;;12.07;;
69856;SDS011;57147;53.582;10.112;2022-10-31T18:56:51;21.55;;;10.65;;
69856;SDS011;57147;53.582;10.112;2022-10-31T19:01:51;25.33;;;13.40;;
69856;SDS011;57147;53.582;10.112;2022-10-31T19:06:55;24.75;;;11.35;;
69856;SDS011;57147;53.582;10.112;2022-10-31T19:11:56;22.42;;;11.35;;
69856;SDS011;57147;53.582;10.112;2022-10-31T19:16:56;19.65;;;10.52;;
69856;SDS011;57147;53.582;10.112;2022-10-31T19:22:00;20.73;;;11.52;;
69856;SDS011;57147;53.582;10.112;2022-10-31T19:27:00;20.05;;;10.52;;
69856;SDS011;57147;53.582;10.112;2022-10-31T19:32:01;22.63;;;10.98;;
69856;SDS011;57147;53.582;10.112;2022-10-31T19:37:04;21.13;;;11.55;;
69856;SDS011;57147;53.582;10.112;2022-10-31T19:42:05;29.23;;;14.68;;
69856;SDS011;57147;53.582;10.112;2022-10-31T19:47:05;24.48;;;12.80;;
69856;SDS011;57147;53.582;10.112;2022-10-31T19:52:08;27.05;;;12.73;;
69856;SDS011;57147;53.582;10.112;2022-10-31T19:57:09;26.23;;;14.23;;
69856;SDS011;57147;53.582;10.112;2022-10-31T20:02:10;26.23;;;12.90;;
69856;SDS011;57147;53.582;10.112;2022-10-31T20:07:15;29.30;;;16.60;;
69856;SDS011;57147;53.582;10.112;2022-10-31T20:12:15;34.35;;;19.50;;
69856;SDS011;57147;53.582;10.112;2022-10-31T20:17:16;35.00;;;18.20;;
69856;SDS011;57147;53.582;10.112;2022-10-31T20:22:19;29.67;;;15.80;;
69856;SDS011;57147;53.582;10.112;2022-10-31T20:27:19;30.40;;;14.13;;
69856;SDS011;57147;53.582;10.112;2022-10-31T20:32:20;24.65;;;12.18;;
69856;SDS011;57147;53.582;10.112;2022-10-31T20:37:23;26.88;;;12.95;;
69856;SDS011;57147;53.582;10.112;2022-10-31T20:42:24;26.48;;;13.65;;
69856;SDS011;57147;53.582;10.112;2022-10-31T20:47:24;26.70;;;12.35;;
69856;SDS011;57147;53.582;10.112;2022-10-31T20:52:28;28.02;;;14.07;;
69856;SDS011;57147;53.582;10.112;2022-10-31T20:57:28;32.97;;;16.08;;
69856;SDS011;57147;53.582;10.112;2022-10-31T21:02:29;43.97;;;22.00;;
69856;SDS011;57147;53.582;10.112;2022-10-31T21:07:32;31.80;;;15.52;;
69856;SDS011;57147;53.582;10.112;2022-10-31T21:12:33;36.03;;;17.80;;
69856;SDS011;57147;53.582;10.112;2022-10-31T21:17:33;28.30;;;14.75;;
69856;SDS011;57147;53.582;10.112;2022-10-31T21:22:37;31.80;;;15.23;;
69856;SDS011;57147;53.582;10.112;2022-10-31T21:27:37;31.33;;;15.63;;
69856;SDS011;57147;53.582;10.112;2022-10-31T21:32:38;31.15;;;14.27;;
69856;SDS011;57147;53.582;10.112;2022-10-31T21:37:41;34.75;;;15.07;;
69856;SDS011;57147;53.582;10.112;2022-10-31T21:42:42;41.72;;;16.08;;
69856;SDS011;57147;53.582;10.112;2022-10-31T21:47:42;34.65;;;14.63;;
69856;SDS011;57147;53.582;10.112;2022-10-31T21:52:45;32.28;;;15.15;;
69856;SDS011;57147;53.582;10.112;2022-10-31T21:57:46;33.30;;;15.35;;
69856;SDS011;57147;53.582;10.112;2022-10-31T22:02:47;34.17;;;16.92;;
69856;SDS011;57147;53.582;10.112;2022-10-31T22:07:50;36.63;;;17.30;;
69856;SDS011;57147;53.582;10.112;2022-10-31T22:12:50;36.85;;;16.05;;
69856;SDS011;57147;53.582;10.112;2022-10-31T22:17:51;41.70;;;18.08;;
69856;SDS011;57147;53.582;10.112;2022-10-31T22:22:55;33.28;;;16.15;;
69856;SDS011;57147;53.582;10.112;2022-10-31T22:27:55;36.65;;;16.73;;
69856;SDS011;57147;53.582;10.112;2022-10-31T22:32:59;40.20;;;17.63;;
69856;SDS011;57147;53.582;10.112;2022-10-31T22:38:02;34.80;;;16.20;;
69856;SDS011;57147;53.582;10.112;2022-10-31T22:43:03;36.95;;;16.50;;
69856;SDS011;57147;53.582;10.112;2022-10-31T22:48:04;40.15;;;16.67;;
69856;SDS011;57147;53.582;10.112;2022-10-31T22:53:07;39.70;;;17.23;;
69856;SDS011;57147;53.582;10.112;2022-10-31T22:58:17;40.92;;;17.15;;
69856;SDS011;57147;53.582;10.112;2022-10-31T23:03:20;37.72;;;17.38;;
69856;SDS011;57147;53.582;10.112;2022-10-31T23:08:23;39.30;;;18.50;;
69856;SDS011;57147;53.582;10.112;2022-10-31T23:13:25;34.60;;;17.98;;
69856;SDS011;57147;53.582;10.112;2022-10-31T23:18:25;38.88;;;16.45;;
69856;SDS011;57147;53.582;10.112;2022-10-31T23:23:31;37.30;;;16.95;;
69856;SDS011;57147;53.582;10.112;2022-10-31T23:28:33;31.65;;;16.88;;
69856;SDS011;57147;53.582;10.112;2022-10-31T23:33:33;30.20;;;16.13;;
69856;SDS011;57147;53.582;10.112;2022-10-31T23:38:36;29.85;;;17.77;;
69856;SDS011;57147;53.582;10.112;2022-10-31T23:43:37;38.83;;;19.42;;
69856;SDS011;57147;53.582;10.112;2022-10-31T23:48:37;31.95;;;15.30;;
69856;SDS011;57147;53.582;10.112;2022-10-31T23:53:41;25.80;;;13.82;;
69856;SDS011;57147;53.582;10.112;2022-10-31T23:58:42;29.45;;;15.73;;
